< < Back
Terminal Aerodrome Forecast


Current Version              Previous Versions:   1  2  3  4  5  6  7  8  9  

Terminal Aerodrome Forecast

988
FTUS42 KGSP 300528
TAFAVL
TAF
KAVL 300528Z 3006/3106 35010KT P6SM FEW250
     FM301400 34006KT P6SM FEW250=

Latest METAR

697
SAUS70 KWBC 301400 RRJ
MTRAVL
METAR KAVL 301354Z 34007KT 10SM CLR 09/03 A3011 RMK AO2 SLP189
T00890033


USA.gov is the U.S. government's official web portal to all federal, state and local government web resources and services.